Time;durP1;ratioP1;P1;durP2;ratioP2;P2;SDS_P1;SDS_P2;PMS_P1;PMS_P2;Temp;Humidity;BMP_temperature;BMP_pressure;BME280_temperature;BME280_humidity;BME280_pressure;Samples;Min_cycle;Max_cycle;Signal;HPM_P1;HPM_P2
2020/12/09 10:03:50;;;;;;;61.95;26.25;;;4.90;99.90;;;;;;5078243;27;20957;-73
2020/12/09 10:06:15;;;;;;;64.25;27.55;;;5.10;99.90;;;;;;5083416;28;20032;-73
2020/12/09 10:08:41;;;;;;;56.47;25.33;;;5.20;99.90;;;;;;5070100;28;20086;-74
2020/12/09 10:11:07;;;;;;;62.33;25.15;;;5.20;99.90;;;;;;5072081;28;20921;-73
2020/12/09 10:13:33;;;;;;;62.15;27.05;;;5.20;99.90;;;;;;5073145;28;20044;-73
2020/12/09 10:15:58;;;;;;;56.83;25.25;;;5.30;99.90;;;;;;5069030;28;20036;-74
2020/12/09 10:18:24;;;;;;;59.08;25.45;;;5.40;99.90;;;;;;5070975;28;20484;-74
2020/12/09 10:20:50;;;;;;;57.55;24.77;;;5.40;99.90;;;;;;5071569;28;20017;-74
2020/12/09 10:23:15;;;;;;;67.80;26.13;;;5.40;99.90;;;;;;5067263;28;20035;-73
2020/12/09 10:25:41;;;;;;;60.95;24.35;;;5.50;99.90;;;;;;5068797;28;20058;-74
2020/12/09 10:28:09;;;;;;;49.50;23.67;;;5.50;99.90;;;;;;5071388;28;20020;-74
2020/12/09 10:30:35;;;;;;;58.83;24.65;;;5.50;99.90;;;;;;5068729;27;20455;-74
2020/12/09 10:33:00;;;;;;;51.10;23.65;;;5.60;99.90;;;;;;5069193;28;20077;-74
2020/12/09 10:35:26;;;;;;;56.17;22.42;;;5.70;99.90;;;;;;5074242;28;20684;-74
2020/12/09 10:37:52;;;;;;;55.10;23.73;;;5.80;99.90;;;;;;5071019;28;20100;-75
2020/12/09 10:40:17;;;;;;;55.67;23.58;;;5.80;99.90;;;;;;5073764;28;20102;-73
2020/12/09 10:42:46;;;;;;;65.07;25.80;;;5.70;99.90;;;;;;5065988;28;20507;-72
2020/12/09 10:45:12;;;;;;;59.72;25.45;;;5.60;99.90;;;;;;5064771;27;20025;-72
2020/12/09 10:47:37;;;;;;;61.83;25.83;;;5.60;99.90;;;;;;5071251;28;20883;-73
2020/12/09 10:50:04;;;;;;;63.10;25.73;;;5.50;99.90;;;;;;5068259;28;21431;-73
2020/12/09 10:52:31;;;;;;;58.90;26.33;;;5.50;99.90;;;;;;5066787;28;20016;-73
2020/12/09 10:54:57;;;;;;;69.15;27.25;;;5.60;99.90;;;;;;5066983;28;20032;-74
2020/12/09 10:57:23;;;;;;;62.65;27.60;;;5.70;99.90;;;;;;5066517;28;20565;-76
2020/12/09 10:59:48;;;;;;;64.63;27.13;;;5.50;99.90;;;;;;5071563;28;20036;-76
2020/12/09 11:02:14;;;;;;;58.30;27.30;;;5.60;99.90;;;;;;5069559;28;20048;-75
2020/12/09 11:04:40;;;;;;;64.18;29.20;;;5.70;99.90;;;;;;5072370;28;20052;-76
2020/12/09 11:07:07;;;;;;;70.15;29.65;;;5.70;99.90;;;;;;5070321;28;20025;-74
2020/12/09 11:23:56;;;;;;;57.47;26.48;;;4.20;99.90;;;;;;5077240;27;20345;-75
2020/12/09 11:34:53;;;;;;;49.47;25.45;;;4.10;99.90;;;;;;5098281;27;20428;-75
2020/12/09 11:37:18;;;;;;;51.20;25.75;;;4.10;99.90;;;;;;5097759;28;20039;-75
2020/12/09 11:39:44;;;;;;;49.95;26.50;;;4.40;99.90;;;;;;5101199;28;20032;-75
2020/12/09 11:42:10;;;;;;;52.60;25.38;;;4.70;99.90;;;;;;5100135;28;20231;-77
2020/12/09 11:44:35;;;;;;;50.50;26.05;;;4.90;99.90;;;;;;5102822;28;20063;-76
2020/12/09 11:47:02;;;;;;;50.42;26.70;;;5.20;99.90;;;;;;5090404;27;20298;-76
2020/12/09 11:49:27;;;;;;;45.67;24.73;;;5.40;99.90;;;;;;5083904;28;20032;-74
2020/12/09 11:51:53;;;;;;;44.80;24.20;;;5.60;99.90;;;;;;5084683;28;20021;-76
2020/12/09 11:54:18;;;;;;;46.88;24.52;;;5.70;99.90;;;;;;5080030;28;20058;-76
2020/12/09 11:56:44;;;;;;;46.42;24.08;;;5.80;99.90;;;;;;5078903;28;20474;-77
2020/12/09 11:59:10;;;;;;;42.28;23.42;;;5.90;99.90;;;;;;5061092;28;20027;-77
2020/12/09 12:01:36;;;;;;;41.00;21.75;;;6.00;99.90;;;;;;5076610;28;20032;-76
2020/12/09 12:04:01;;;;;;;48.38;24.08;;;6.10;99.90;;;;;;5080599;28;20561;-77
2020/12/09 12:06:28;;;;;;;43.20;22.98;;;6.10;99.90;;;;;;5084063;28;20390;-82
2020/12/09 12:08:55;;;;;;;42.53;21.95;;;6.10;99.90;;;;;;5062539;28;20266;-75
2020/12/09 12:11:22;;;;;;;40.25;20.73;;;6.30;99.90;;;;;;5066619;28;20047;-76
2020/12/09 12:13:48;;;;;;;38.25;21.00;;;6.30;99.90;;;;;;5076958;28;20024;-76
2020/12/09 12:16:23;;;;;;;40.50;20.30;;;6.30;99.90;;;;;;5077566;28;21373;-76
2020/12/09 12:18:49;;;;;;;38.55;20.45;;;6.40;99.90;;;;;;5088846;28;20039;-80
2020/12/09 12:21:16;;;;;;;37.33;20.92;;;6.50;99.90;;;;;;5063872;28;20032;-80
2020/12/09 12:23:42;;;;;;;38.13;19.60;;;6.40;99.90;;;;;;5087570;28;20052;-78
2020/12/09 12:26:08;;;;;;;40.33;19.88;;;6.40;99.90;;;;;;5076818;28;20032;-79
2020/12/09 12:28:34;;;;;;;35.72;19.88;;;6.50;99.90;;;;;;5066663;28;20711;-79
2020/12/09 12:30:59;;;;;;;36.70;19.63;;;6.50;99.90;;;;;;5084887;28;20051;-78
2020/12/09 12:33:25;;;;;;;37.75;19.25;;;6.60;99.90;;;;;;5086080;28;20507;-78
2020/12/09 12:35:52;;;;;;;37.78;20.27;;;6.60;99.90;;;;;;5088816;28;20032;-78
2020/12/09 12:38:17;;;;;;;37.78;19.65;;;6.60;99.90;;;;;;5068071;28;20973;-78
2020/12/09 12:40:43;;;;;;;36.47;19.65;;;6.50;99.90;;;;;;5084736;28;20024;-79
2020/12/09 12:43:09;;;;;;;41.97;20.55;;;6.60;99.90;;;;;;5085544;28;20028;-79
2020/12/09 12:45:34;;;;;;;42.53;21.02;;;6.60;99.90;;;;;;5060665;28;20068;-78
2020/12/09 12:48:00;;;;;;;45.22;21.88;;;6.60;99.90;;;;;;5075139;28;20029;-78
2020/12/09 12:50:26;;;;;;;47.08;22.58;;;6.70;99.90;;;;;;5067188;28;20036;-76
2020/12/09 12:52:51;;;;;;;40.67;21.08;;;6.70;99.90;;;;;;5078268;28;20041;-78
2020/12/09 12:55:17;;;;;;;43.35;21.70;;;6.80;99.90;;;;;;5076971;28;20029;-79
2020/12/09 12:57:43;;;;;;;44.83;22.15;;;6.70;99.90;;;;;;5086964;28;20037;-80
2020/12/09 13:00:09;;;;;;;43.45;22.90;;;6.60;99.90;;;;;;5073190;28;20024;-80
2020/12/09 13:02:34;;;;;;;42.03;21.13;;;6.60;99.90;;;;;;5056453;28;20124;-78
2020/12/09 13:05:01;;;;;;;46.15;22.45;;;6.60;99.90;;;;;;5053641;28;20089;-79
2020/12/09 13:07:27;;;;;;;55.67;24.15;;;6.70;99.90;;;;;;5072905;28;20059;-78
2020/12/09 13:09:52;;;;;;;48.60;23.98;;;6.70;99.90;;;;;;5071777;28;21941;-80
2020/12/09 13:12:22;;;;;;;47.47;23.35;;;6.70;99.90;;;;;;5074731;28;20032;-77
2020/12/09 13:14:48;;;;;;;53.15;25.02;;;6.70;99.90;;;;;;5064296;28;20020;-80
2020/12/09 13:17:17;;;;;;;52.92;26.17;;;6.70;99.90;;;;;;5062927;28;20039;-80
2020/12/09 13:19:43;;;;;;;52.35;24.13;;;6.60;99.90;;;;;;5069189;28;20025;-76
2020/12/09 13:22:09;;;;;;;55.95;25.65;;;6.60;99.90;;;;;;5067453;28;20035;-77
2020/12/09 13:24:34;;;;;;;51.03;24.92;;;6.60;99.90;;;;;;5070086;28;20028;-78
2020/12/09 13:27:00;;;;;;;56.33;25.52;;;6.60;99.90;;;;;;5064670;28;20494;-80
2020/12/09 13:29:26;;;;;;;52.22;25.63;;;6.50;99.90;;;;;;5071576;28;20040;-78
2020/12/09 13:31:52;;;;;;;54.15;25.98;;;6.60;99.90;;;;;;5050537;28;20110;-80
2020/12/09 13:34:18;;;;;;;54.13;26.10;;;6.60;99.90;;;;;;5057733;28;20040;-79
2020/12/09 13:36:45;;;;;;;53.50;25.90;;;6.60;99.90;;;;;;5068585;28;20092;-80
2020/12/09 13:39:10;;;;;;;57.58;27.10;;;6.60;99.90;;;;;;5069571;28;20043;-79
2020/12/09 13:41:36;;;;;;;61.00;28.88;;;6.70;99.90;;;;;;5067646;28;20478;-80
2020/12/09 13:44:02;;;;;;;51.95;27.35;;;6.70;99.90;;;;;;5051982;28;20407;-80
2020/12/09 13:46:28;;;;;;;51.25;24.63;;;6.70;99.90;;;;;;5065623;28;20048;-80
2020/12/09 14:19:53;;;;;;;41.67;20.70;;;4.20;99.90;;;;;;5101784;27;20121;-79
2020/12/09 14:22:19;;;;;;;42.33;22.50;;;4.20;99.90;;;;;;5099457;27;20028;-79
2020/12/09 14:24:47;;;;;;;41.28;22.33;;;4.60;99.90;;;;;;5102780;28;20517;-79
2020/12/09 14:27:13;;;;;;;47.45;23.00;;;5.00;99.90;;;;;;5098062;28;20086;-79
2020/12/09 14:29:39;;;;;;;41.67;21.73;;;5.40;99.90;;;;;;5098220;28;20028;-77
2020/12/09 14:32:04;;;;;;;40.80;22.92;;;5.70;99.90;;;;;;5065918;27;20041;-76
2020/12/09 14:34:30;;;;;;;40.55;21.42;;;5.90;99.90;;;;;;5056789;28;20576;-77
2020/12/09 14:36:56;;;;;;;48.13;22.65;;;6.20;99.90;;;;;;5060706;28;20048;-77
